Time;durP1;ratioP1;P1;durP2;ratioP2;P2;SDS_P1;SDS_P2;PMS_P1;PMS_P2;Temp;Humidity;BMP_temperature;BMP_pressure;BME280_temperature;BME280_humidity;BME280_pressure;Samples;Min_cycle;Max_cycle;Signal;HPM_P1;HPM_P2
2021/10/03 00:01:19;;;;;;;1999.90;999.90;;;;;;;5.63;93.86;96452.09;5070762;28;20216;-72
2021/10/03 00:03:49;;;;;;;1999.90;999.90;;;;;;;5.63;93.91;96452.09;5070586;28;20202;-72
2021/10/03 00:06:18;;;;;;;1999.90;999.90;;;;;;;5.63;93.49;96460.59;5070904;28;20257;-72
2021/10/03 00:08:46;;;;;;;1999.90;999.90;;;;;;;5.62;92.43;96460.84;5070503;28;20193;-72
2021/10/03 00:11:14;;;;;;;1999.90;999.90;;;;;;;5.59;92.00;96463.88;5070776;28;20208;-72
2021/10/03 00:13:42;;;;;;;1999.90;999.90;;;;;;;5.54;90.34;96468.97;5070342;28;20668;-72
2021/10/03 00:16:09;;;;;;;1999.90;999.90;;;;;;;5.45;89.78;96470.41;5070186;28;20197;-71
2021/10/03 00:18:37;;;;;;;1999.90;999.90;;;;;;;5.29;90.25;96471.19;5070477;28;20219;-72
2021/10/03 00:21:07;;;;;;;1999.90;999.90;;;;;;;5.12;91.64;96471.22;5070226;28;20290;-72
2021/10/03 00:23:35;;;;;;;1999.90;999.90;;;;;;;5.04;91.20;96463.84;5070517;28;20188;-72
2021/10/03 00:26:02;;;;;;;1999.90;999.90;;;;;;;5.06;91.53;96466.97;5070826;28;20226;-72
2021/10/03 00:28:29;;;;;;;1999.90;999.90;;;;;;;5.02;92.24;96464.09;5070244;28;20682;-71
2021/10/03 00:30:56;;;;;;;1999.90;999.90;;;;;;;4.99;92.32;96459.41;5070577;28;20737;-72
2021/10/03 00:33:23;;;;;;;1999.90;999.90;;;;;;;4.85;93.39;96457.38;5069991;28;20207;-72
2021/10/03 00:35:51;;;;;;;1999.90;999.90;;;;;;;4.78;93.14;96459.31;5070171;28;20192;-72
2021/10/03 00:38:19;;;;;;;1999.90;999.90;;;;;;;4.73;94.69;96457.44;5069740;28;20833;-72
2021/10/03 00:40:47;;;;;;;1999.90;999.90;;;;;;;4.76;94.11;96455.19;5070190;28;20200;-72
2021/10/03 00:43:14;;;;;;;1999.90;999.90;;;;;;;4.81;93.75;96451.91;5070247;28;20664;-72
2021/10/03 00:45:43;;;;;;;1999.90;999.90;;;;;;;4.72;93.83;96443.00;5069756;28;20249;-72
2021/10/03 00:48:10;;;;;;;1999.90;999.90;;;;;;;4.76;94.01;96449.25;5069731;28;20189;-72
2021/10/03 00:50:41;;;;;;;1999.90;999.90;;;;;;;4.83;93.32;96451.69;5069642;28;21012;-71
2021/10/03 00:53:08;;;;;;;1999.90;999.90;;;;;;;4.75;93.53;96452.84;5069393;28;20235;-71
2021/10/03 00:55:37;;;;;;;1999.90;999.90;;;;;;;4.68;94.46;96449.63;5069939;28;20181;-72
2021/10/03 00:58:05;;;;;;;1999.90;999.90;;;;;;;4.54;94.18;96445.78;5069650;28;20313;-72
2021/10/03 01:00:34;;;;;;;1999.90;999.90;;;;;;;4.36;93.74;96438.25;5069361;28;20209;-72
2021/10/03 01:03:02;;;;;;;1999.90;999.90;;;;;;;4.40;93.06;96442.72;5069589;28;20193;-72
2021/10/03 01:05:29;;;;;;;1999.90;999.90;;;;;;;4.43;92.87;96441.47;5069286;28;20203;-72
2021/10/03 01:07:57;;;;;;;1999.90;999.90;;;;;;;4.47;92.92;96440.00;5069493;28;20197;-72
2021/10/03 01:10:27;;;;;;;1999.90;999.90;;;;;;;4.45;93.70;96440.22;5069168;28;20747;-72
2021/10/03 01:13:03;;;;;;;1999.90;999.90;;;;;;;4.47;93.32;96432.28;5069304;28;20245;-72
2021/10/03 01:15:32;;;;;;;1999.90;999.90;;;;;;;4.46;94.11;96430.72;5069107;28;20212;-72
2021/10/03 01:17:59;;;;;;;1999.90;999.90;;;;;;;4.42;94.03;96430.41;5069249;28;20251;-72
2021/10/03 01:20:26;;;;;;;1999.90;999.90;;;;;;;4.49;93.52;96431.03;5069533;28;20636;-70
2021/10/03 01:22:55;;;;;;;1999.90;999.90;;;;;;;4.06;92.19;96431.53;5069374;28;20200;-72
2021/10/03 01:25:22;;;;;;;1999.90;999.90;;;;;;;4.18;91.57;96428.94;5068733;28;20622;-72
2021/10/03 01:27:50;;;;;;;1999.90;999.90;;;;;;;4.17;92.08;96429.94;5068731;28;20281;-72
2021/10/03 01:30:19;;;;;;;1999.90;999.90;;;;;;;4.17;92.80;96433.31;5069586;28;20200;-72
2021/10/03 01:32:46;;;;;;;1999.90;999.90;;;;;;;4.00;93.06;96437.59;5069382;28;20904;-72
2021/10/03 01:35:13;;;;;;;1999.90;999.90;;;;;;;4.07;92.99;96445.19;5069500;28;20201;-72
2021/10/03 01:37:41;;;;;;;1999.90;999.90;;;;;;;4.10;94.66;96437.00;5069300;28;20203;-72
2021/10/03 01:40:11;;;;;;;1999.90;999.90;;;;;;;3.89;93.51;96433.25;5068947;28;20707;-72
2021/10/03 01:42:40;;;;;;;1999.90;999.90;;;;;;;3.80;92.97;96443.13;5069069;28;20189;-72
2021/10/03 01:45:11;;;;;;;1999.90;999.90;;;;;;;3.82;92.66;96442.91;5069248;28;20200;-72
2021/10/03 01:48:06;;;;;;;1999.90;999.90;;;;;;;3.95;92.15;96440.06;5069004;28;20192;-73
2021/10/03 01:50:36;;;;;;;1999.90;999.90;;;;;;;3.91;91.53;96438.97;5068922;28;20710;-69
2021/10/03 01:53:03;;;;;;;1999.90;999.90;;;;;;;3.84;93.30;96444.22;5068803;28;20232;-72
2021/10/03 01:55:31;;;;;;;1999.90;999.90;;;;;;;3.82;93.82;96448.81;5068939;28;20195;-71
2021/10/03 01:57:58;;;;;;;1999.90;999.90;;;;;;;3.81;93.93;96443.91;5068896;28;20230;-71
2021/10/03 02:00:26;;;;;;;1999.90;999.90;;;;;;;3.94;93.54;96440.28;5068956;28;20203;-71
2021/10/03 02:02:58;;;;;;;1999.90;999.90;;;;;;;3.93;94.30;96439.53;5063134;28;20208;-72
2021/10/03 02:05:25;;;;;;;1999.90;999.90;;;;;;;3.97;93.99;96432.13;5066699;28;20219;-72
2021/10/03 02:07:53;;;;;;;1999.90;999.90;;;;;;;3.98;95.17;96433.69;5068643;28;20200;-72
2021/10/03 02:10:20;;;;;;;1999.90;999.90;;;;;;;4.00;95.61;96432.44;5067755;28;20200;-71
2021/10/03 02:12:50;;;;;;;1999.90;999.90;;;;;;;3.95;95.96;96432.34;5068776;28;20204;-71
2021/10/03 02:15:18;;;;;;;1999.90;999.90;;;;;;;3.93;95.27;96429.25;5069293;28;20254;-71
2021/10/03 02:17:45;;;;;;;1999.90;999.90;;;;;;;3.82;95.30;96427.47;5068896;28;20643;-72
2021/10/03 02:20:14;;;;;;;1999.90;999.90;;;;;;;3.77;96.69;96428.16;5068690;28;20743;-72
2021/10/03 02:22:41;;;;;;;1999.90;999.90;;;;;;;3.74;96.66;96420.88;5068882;28;20203;-72
2021/10/03 02:25:09;;;;;;;1999.90;999.90;;;;;;;3.72;96.91;96424.69;5068937;28;20203;-71
2021/10/03 02:27:36;;;;;;;1999.90;999.90;;;;;;;3.80;97.63;96421.75;5068617;28;20201;-72
2021/10/03 02:30:08;;;;;;;1999.90;999.90;;;;;;;3.75;97.62;96424.25;5068451;28;20196;-72
2021/10/03 02:32:35;;;;;;;1999.90;999.90;;;;;;;3.70;95.73;96413.84;5068642;28;20193;-72
2021/10/03 02:35:02;;;;;;;1999.90;999.90;;;;;;;3.65;95.68;96413.75;5068422;28;20204;-72
2021/10/03 02:37:29;;;;;;;1999.90;999.90;;;;;;;3.69;96.58;96415.63;5071515;28;20687;-71
2021/10/03 02:39:57;;;;;;;1999.90;999.90;;;;;;;3.69;96.10;96415.63;5072473;28;20928;-72
2021/10/03 02:42:24;;;;;;;1999.90;999.90;;;;;;;3.62;95.47;96420.13;5072300;28;20663;-72
2021/10/03 02:44:51;;;;;;;1999.90;999.90;;;;;;;3.50;95.93;96421.16;5072236;28;20204;-72
2021/10/03 02:47:20;;;;;;;1999.90;999.90;;;;;;;3.41;94.61;96428.41;5072351;28;20208;-72
2021/10/03 02:49:47;;;;;;;1999.90;999.90;;;;;;;3.27;95.42;96430.44;5072471;28;20196;-72
2021/10/03 02:52:14;;;;;;;1999.90;999.90;;;;;;;3.22;94.80;96429.53;5072040;28;20597;-72
2021/10/03 02:54:42;;;;;;;1999.90;999.90;;;;;;;3.28;94.78;96429.44;5071966;28;20232;-72
2021/10/03 02:57:09;;;;;;;1999.90;999.90;;;;;;;3.33;95.33;96431.34;5072169;28;20230;-72
2021/10/03 02:59:36;;;;;;;1999.90;999.90;;;;;;;3.40;95.46;96437.91;5072187;28;20224;-71
2021/10/03 03:02:04;;;;;;;1999.90;999.90;;;;;;;3.37;95.73;96435.81;5071894;28;20197;-72
2021/10/03 03:04:32;;;;;;;1999.90;999.90;;;;;;;3.37;95.82;96433.25;5071799;28;20249;-71
2021/10/03 03:06:59;;;;;;;1999.90;999.90;;;;;;;3.44;95.13;96438.25;5072061;28;20258;-72
2021/10/03 03:09:27;;;;;;;1999.90;999.90;;;;;;;3.36;94.41;96436.03;5071978;28;20188;-72
2021/10/03 03:11:54;;;;;;;1999.90;999.90;;;;;;;3.37;94.40;96435.81;5071543;28;20708;-71
2021/10/03 03:14:21;;;;;;;1999.90;999.90;;;;;;;3.25;95.53;96440.16;5071909;28;20700;-72
2021/10/03 03:16:50;;;;;;;1999.90;999.90;;;;;;;3.16;94.57;96440.72;5071918;28;20200;-72
2021/10/03 03:19:18;;;;;;;1999.90;999.90;;;;;;;3.08;95.91;96443.63;5071823;28;20264;-72
2021/10/03 03:21:47;;;;;;;1999.90;999.90;;;;;;;3.02;96.54;96445.28;5071166;28;20247;-72
2021/10/03 03:24:14;;;;;;;1999.90;999.90;;;;;;;2.96;96.75;96436.69;5071970;28;20200;-71
2021/10/03 03:26:42;;;;;;;1999.90;999.90;;;;;;;2.95;97.11;96426.63;5071469;28;20203;-72
2021/10/03 03:29:09;;;;;;;1999.90;999.90;;;;;;;3.02;97.90;96422.19;5071763;28;20232;-71
2021/10/03 03:31:36;;;;;;;1999.90;999.90;;;;;;;3.04;97.04;96422.72;5071735;28;21022;-72
2021/10/03 03:34:03;;;;;;;1999.90;999.90;;;;;;;3.00;98.16;96422.38;5071481;28;20258;-72
2021/10/03 03:36:30;;;;;;;1999.90;999.90;;;;;;;2.89;99.11;96422.41;5071819;28;20199;-72
2021/10/03 03:38:58;;;;;;;1999.90;999.90;;;;;;;2.91;100.00;96425.50;5071782;28;20220;-72
2021/10/03 03:41:25;;;;;;;1999.90;999.90;;;;;;;3.01;100.00;96423.16;5071737;28;20235;-72
2021/10/03 03:43:52;;;;;;;1999.90;999.90;;;;;;;2.99;99.91;96420.81;5071836;28;20220;-72
2021/10/03 03:46:19;;;;;;;1999.90;999.90;;;;;;;2.99;99.66;96422.59;5071108;28;20254;-71
2021/10/03 03:48:46;;;;;;;1999.90;999.90;;;;;;;3.02;99.90;96415.25;5071034;28;20668;-72
2021/10/03 03:51:14;;;;;;;1999.90;999.90;;;;;;;3.10;100.00;96414.13;5071012;28;20204;-71
2021/10/03 03:53:41;;;;;;;1999.90;999.90;;;;;;;3.17;99.43;96411.47;5070972;28;20239;-72
2021/10/03 03:56:10;;;;;;;1999.90;999.90;;;;;;;3.06;99.95;96410.44;5070887;28;20615;-72
2021/10/03 03:58:37;;;;;;;1999.90;999.90;;;;;;;3.08;100.00;96408.44;5070872;28;20196;-72
2021/10/03 04:01:04;;;;;;;1999.90;999.90;;;;;;;3.10;100.00;96411.56;5070697;28;20214;-73
2021/10/03 04:03:31;;;;;;;1999.90;999.90;;;;;;;3.01;99.73;96420.59;5071223;28;20615;-72
2021/10/03 04:05:58;;;;;;;1999.90;999.90;;;;;;;2.84;98.40;96422.28;5070978;28;20630;-72
2021/10/03 04:08:25;;;;;;;1999.90;999.90;;;;;;;2.71;97.39;96427.59;5070793;28;20279;-72
2021/10/03 04:10:52;;;;;;;1999.90;999.90;;;;;;;2.68;96.92;96435.75;5070700;28;20196;-72
2021/10/03 04:13:21;;;;;;;1999.90;999.90;;;;;;;2.65;96.07;96433.59;5070773;28;20624;-72
2021/10/03 04:15:48;;;;;;;1999.90;999.90;;;;;;;2.63;96.41;96433.06;5070796;28;20203;-72
2021/10/03 04:18:16;;;;;;;1999.90;999.90;;;;;;;2.73;96.25;96441.00;5070734;28;20628;-72
2021/10/03 04:20:44;;;;;;;1999.90;999.90;;;;;;;2.73;97.15;96436.66;5070650;28;20289;-72
2021/10/03 04:23:11;;;;;;;1999.90;999.90;;;;;;;2.72;96.80;96447.13;5070674;28;20246;-72
2021/10/03 04:25:38;;;;;;;1999.90;999.90;;;;;;;2.77;96.32;96447.25;5070249;28;20201;-72
2021/10/03 04:28:05;;;;;;;1999.90;999.90;;;;;;;2.77;97.18;96445.47;5070688;28;20261;-72
2021/10/03 04:30:34;;;;;;;1999.90;999.90;;;;;;;2.88;96.35;96454.19;5070112;28;20196;-72
2021/10/03 04:33:01;;;;;;;1999.90;999.90;;;;;;;2.85;95.87;96454.63;5070555;28;20668;-72
2021/10/03 04:35:28;;;;;;;1999.90;999.90;;;;;;;2.79;96.06;96458.84;5070453;28;20676;-72
2021/10/03 04:37:55;;;;;;;1999.90;999.90;;;;;;;2.79;96.20;96460.66;5069930;28;20212;-72
2021/10/03 04:40:22;;;;;;;1999.90;999.90;;;;;;;2.77;96.76;96463.44;5069962;28;20220;-72
2021/10/03 04:42:49;;;;;;;1999.90;999.90;;;;;;;2.77;97.35;96460.06;5070113;28;20242;-72
2021/10/03 04:45:16;;;;;;;1999.90;999.90;;;;;;;2.74;97.40;96460.53;5069957;28;20252;-72
2021/10/03 04:47:47;;;;;;;1999.90;999.90;;;;;;;2.71;98.07;96463.53;5069687;28;20202;-73
2021/10/03 04:50:15;;;;;;;1999.90;999.90;;;;;;;2.82;98.25;96457.63;5069803;28;20191;-72
2021/10/03 04:52:43;;;;;;;1999.90;999.90;;;;;;;2.78;98.20;96454.75;5069466;28;20203;-72
2021/10/03 04:55:13;;;;;;;1999.90;999.90;;;;;;;2.80;97.68;96457.84;5069621;28;20207;-72
2021/10/03 04:57:41;;;;;;;1999.90;999.90;;;;;;;2.88;98.29;96461.91;5069575;28;20191;-72
2021/10/03 05:00:10;;;;;;;1999.90;999.90;;;;;;;2.94;99.36;96459.22;5068660;28;20231;-72
2021/10/03 05:02:37;;;;;;;1999.90;999.90;;;;;;;3.01;98.60;96459.13;5069977;28;20345;-71
2021/10/03 05:05:07;;;;;;;1999.90;999.90;;;;;;;3.12;99.07;96467.84;5069463;28;20207;-72
2021/10/03 05:07:34;;;;;;;1999.90;999.90;;;;;;;3.17;98.79;96470.53;5069409;28;20196;-72
2021/10/03 05:10:03;;;;;;;1999.90;999.90;;;;;;;3.17;98.71;96475.66;5069306;28;20701;-72
2021/10/03 05:12:31;;;;;;;1999.90;999.90;;;;;;;3.26;99.86;96475.09;5069561;28;20274;-72
2021/10/03 05:14:58;;;;;;;1999.90;999.90;;;;;;;3.36;99.85;96470.19;5069590;28;20207;-72
2021/10/03 05:17:25;;;;;;;1999.90;999.90;;;;;;;3.51;100.00;96471.53;5069287;28;20757;-72
2021/10/03 05:19:52;;;;;;;1999.90;999.90;;;;;;;3.47;100.00;96471.22;5069123;28;20258;-72
2021/10/03 05:22:20;;;;;;;1999.90;999.90;;;;;;;3.49;99.86;96466.59;5069477;28;20200;-72
2021/10/03 05:24:47;;;;;;;1999.90;999.90;;;;;;;3.62;100.00;96473.31;5069117;28;20188;-72
2021/10/03 05:27:14;;;;;;;1999.90;999.90;;;;;;;3.68;100.00;96480.13;5069068;28;20223;-72
2021/10/03 05:29:41;;;;;;;1999.90;999.90;;;;;;;3.81;100.00;96478.09;5068606;28;20208;-72
2021/10/03 05:32:08;;;;;;;1999.90;999.90;;;;;;;3.97;100.00;96478.41;5069092;28;20230;-72
2021/10/03 05:34:35;;;;;;;1999.90;999.90;;;;;;;4.16;100.00;96480.59;5069279;28;20196;-72
2021/10/03 05:37:03;;;;;;;1999.90;999.90;;;;;;;4.32;100.00;96479.09;5069003;28;20273;-72
2021/10/03 05:39:31;;;;;;;1999.90;999.90;;;;;;;4.90;100.00;96475.47;5069084;28;20298;-72
2021/10/03 05:41:58;;;;;;;1999.90;999.90;;;;;;;6.37;100.00;96473.94;5069233;28;20273;-73
2021/10/03 05:44:25;;;;;;;1999.90;999.90;;;;;;;7.89;92.27;96475.09;5069429;28;20235;-72
2021/10/03 05:46:52;;;;;;;1999.90;999.90;;;;;;;8.76;83.28;96478.78;5069251;28;20204;-73
2021/10/03 05:49:19;;;;;;;1999.90;999.90;;;;;;;9.38;79.73;96476.75;5069085;28;20749;-73
2021/10/03 05:51:46;;;;;;;1999.90;999.90;;;;;;;10.43;77.09;96483.75;5068866;28;20291;-73
2021/10/03 05:54:13;;;;;;;1999.90;999.90;;;;;;;10.67;73.22;96501.03;5068824;28;20289;-73
2021/10/03 05:56:42;;;;;;;1999.90;999.90;;;;;;;10.28;73.92;96493.16;5068728;28;20723;-73
2021/10/03 05:59:12;;;;;;;1999.90;999.90;;;;;;;9.90;76.31;96493.78;5068988;28;20627;-73
2021/10/03 06:01:39;;;;;;;1999.90;999.90;;;;;;;9.25;77.81;96482.47;5069279;28;20278;-73
2021/10/03 06:04:06;;;;;;;1999.90;999.90;;;;;;;9.13;80.35;96494.91;5068655;28;20216;-72
2021/10/03 06:06:33;;;;;;;1999.90;999.90;;;;;;;9.66;79.40;96483.19;5068574;28;20204;-72
2021/10/03 06:09:00;;;;;;;1999.90;999.90;;;;;;;10.43;77.22;96484.53;5068914;28;20239;-72
2021/10/03 06:11:27;;;;;;;1999.90;999.90;;;;;;;10.56;75.09;96477.97;5072084;28;20196;-72
2021/10/03 06:13:57;;;;;;;1999.90;999.90;;;;;;;10.55;75.89;96479.00;5072701;28;20287;-73
2021/10/03 06:16:24;;;;;;;1999.90;999.90;;;;;;;10.11;76.95;96479.69;5073000;28;20207;-73
2021/10/03 06:18:51;;;;;;;1999.90;999.90;;;;;;;9.64;79.28;96484.50;5072818;28;20204;-73
2021/10/03 06:21:18;;;;;;;1999.90;999.90;;;;;;;9.52;80.73;96485.53;5072357;28;20224;-72
2021/10/03 06:23:46;;;;;;;1999.90;999.90;;;;;;;9.67;80.93;96481.38;5072922;28;20189;-73
2021/10/03 06:26:14;;;;;;;1999.90;999.90;;;;;;;9.52;81.76;96488.13;5072989;28;20321;-72
2021/10/03 06:28:41;;;;;;;1999.90;999.90;;;;;;;9.21;81.84;96488.44;5072571;28;20794;-73
2021/10/03 06:31:09;;;;;;;1999.90;999.90;;;;;;;9.05;83.00;96478.06;5072583;28;20197;-72
2021/10/03 06:33:39;;;;;;;1999.90;999.90;;;;;;;9.12;83.04;96477.78;5072381;28;20197;-72
2021/10/03 06:36:07;;;;;;;1999.90;999.90;;;;;;;8.92;84.31;96477.75;5072617;28;20201;-72
2021/10/03 06:38:34;;;;;;;1999.90;999.90;;;;;;;9.28;83.95;96479.34;5072494;28;20230;-71
2021/10/03 06:41:01;;;;;;;1999.90;999.90;;;;;;;9.34;83.96;96480.91;5072328;28;20311;-72
2021/10/03 06:43:30;;;;;;;1999.90;999.90;;;;;;;9.30;84.01;96479.09;5072359;28;20197;-72
2021/10/03 06:45:57;;;;;;;1999.90;999.90;;;;;;;9.50;83.13;96485.03;5072422;28;20193;-72
2021/10/03 06:48:26;;;;;;;1999.90;999.90;;;;;;;9.89;81.31;96482.63;5072607;28;20201;-72
2021/10/03 06:50:53;;;;;;;1999.90;999.90;;;;;;;9.93;80.43;96480.28;5072197;28;20238;-72
2021/10/03 06:53:20;;;;;;;1999.90;999.90;;;;;;;10.13;79.48;96484.63;5071919;28;20235;-73
2021/10/03 06:55:47;;;;;;;1999.90;999.90;;;;;;;10.34;79.01;96479.13;5072186;28;20184;-72
2021/10/03 06:58:14;;;;;;;1999.90;999.90;;;;;;;10.31;78.28;96477.03;5072030;28;20196;-72
2021/10/03 07:00:41;;;;;;;1999.90;999.90;;;;;;;10.39;78.72;96474.94;5072071;28;20220;-72
2021/10/03 07:03:08;;;;;;;1999.90;999.90;;;;;;;10.67;77.71;96484.66;5072214;28;20196;-72
2021/10/03 07:05:37;;;;;;;1999.90;999.90;;;;;;;10.77;78.42;96476.78;5072156;28;20208;-72
2021/10/03 07:08:05;;;;;;;1999.90;999.90;;;;;;;10.93;77.47;96483.44;5071752;28;20201;-73
2021/10/03 07:10:32;;;;;;;1999.90;999.90;;;;;;;10.92;76.68;96481.13;5072233;28;20200;-72
2021/10/03 07:12:59;;;;;;;1999.90;999.90;;;;;;;11.13;76.83;96485.91;5071909;28;20197;-72
2021/10/03 07:15:26;;;;;;;1999.90;999.90;;;;;;;11.34;75.92;96485.75;5071521;28;20204;-72
2021/10/03 07:17:53;;;;;;;1999.90;999.90;;;;;;;11.46;76.40;96478.34;5071907;28;20201;-72
2021/10/03 07:20:20;;;;;;;1999.90;999.90;;;;;;;11.33;77.20;96479.00;5071249;28;20220;-72
2021/10/03 07:22:49;;;;;;;1999.90;999.90;;;;;;;11.39;76.73;96483.09;5070681;28;20200;-72
2021/10/03 07:25:16;;;;;;;1999.90;999.90;;;;;;;11.37;76.57;96488.59;5071768;28;20219;-72
2021/10/03 07:27:43;;;;;;;1999.90;999.90;;;;;;;11.68;76.36;96494.31;5071337;28;20200;-72
2021/10/03 07:30:11;;;;;;;1999.90;999.90;;;;;;;11.89;74.98;96498.28;5071606;28;20196;-72
2021/10/03 07:32:38;;;;;;;1999.90;999.90;;;;;;;12.10;73.64;96493.66;5071447;28;20200;-72
2021/10/03 07:35:06;;;;;;;1999.90;999.90;;;;;;;12.32;72.72;96500.94;5071281;28;20232;-72
2021/10/03 07:37:33;;;;;;;1999.90;999.90;;;;;;;12.45;73.49;96497.66;5071190;28;20650;-72
2021/10/03 07:40:03;;;;;;;1999.90;999.90;;;;;;;12.50;72.08;96502.81;5071055;28;20217;-72
2021/10/03 07:42:30;;;;;;;1999.90;999.90;;;;;;;12.82;72.35;96499.50;5071489;28;20232;-72
2021/10/03 07:44:57;;;;;;;1999.90;999.90;;;;;;;12.76;72.26;96503.25;5070926;28;20262;-72
2021/10/03 07:47:24;;;;;;;1999.90;999.90;;;;;;;12.82;72.76;96500.28;5071337;28;20196;-72
2021/10/03 07:49:51;;;;;;;1999.90;999.90;;;;;;;12.65;71.60;96497.38;5070929;28;20203;-72
2021/10/03 07:52:18;;;;;;;1999.90;999.90;;;;;;;12.54;71.20;96492.59;5068305;28;20278;-72
2021/10/03 07:54:45;;;;;;;1999.90;999.90;;;;;;;12.68;71.87;96503.88;5070584;28;20236;-71
2021/10/03 07:57:14;;;;;;;1999.90;999.90;;;;;;;12.68;71.95;96498.66;5070688;28;20287;-72
2021/10/03 07:59:41;;;;;;;1999.90;999.90;;;;;;;13.02;69.44;96503.66;5070737;28;20745;-71
2021/10/03 08:02:08;;;;;;;1999.90;999.90;;;;;;;12.92;70.43;96505.38;5070747;28;20624;-72
2021/10/03 08:04:35;;;;;;;1999.90;999.90;;;;;;;13.03;68.64;96500.78;5070684;28;20956;-72
2021/10/03 08:07:02;;;;;;;1999.90;999.90;;;;;;;13.31;68.47;96501.66;5070805;28;20221;-72
2021/10/03 08:09:29;;;;;;;1999.90;999.90;;;;;;;13.44;68.82;96500.97;5070542;28;20680;-71
2021/10/03 08:11:56;;;;;;;1999.90;999.90;;;;;;;13.32;69.53;96495.41;5070770;28;20208;-71
2021/10/03 08:14:24;;;;;;;1999.90;999.90;;;;;;;13.35;69.47;96494.81;5070419;28;20208;-71
2021/10/03 08:16:52;;;;;;;1999.90;999.90;;;;;;;13.37;69.80;96484.88;5070627;28;20281;-72
2021/10/03 08:19:19;;;;;;;1999.90;999.90;;;;;;;13.69;68.80;96486.69;5070248;28;20196;-72
2021/10/03 08:21:46;;;;;;;1999.90;999.90;;;;;;;13.83;67.26;96479.66;5070457;28;20281;-72
2021/10/03 08:24:13;;;;;;;1999.90;999.90;;;;;;;14.17;66.52;96476.66;5070344;28;20205;-71
2021/10/03 08:26:40;;;;;;;1999.90;999.90;;;;;;;14.43;64.12;96477.72;5070321;28;20203;-72
2021/10/03 08:29:07;;;;;;;1999.90;999.90;;;;;;;14.35;64.59;96478.38;5070214;28;20223;-72
2021/10/03 08:31:35;;;;;;;1999.90;999.90;;;;;;;14.27;67.38;96470.44;5069900;28;20575;-71
2021/10/03 08:34:02;;;;;;;1999.90;999.90;;;;;;;14.46;67.52;96471.91;5068874;28;20200;-72
2021/10/03 08:36:30;;;;;;;1999.90;999.90;;;;;;;14.81;65.20;96475.59;5070240;28;20254;-71
2021/10/03 08:38:57;;;;;;;1999.90;999.90;;;;;;;14.94;64.19;96468.78;5070022;28;20207;-71
2021/10/03 08:41:24;;;;;;;1999.90;999.90;;;;;;;14.62;65.16;96467.91;5069714;28;20232;-71
2021/10/03 08:43:53;;;;;;;1999.90;999.90;;;;;;;15.15;63.09;96467.22;5070145;28;20338;-72
2021/10/03 08:46:25;;;;;;;1999.90;999.90;;;;;;;15.14;63.76;96473.56;5069507;28;20196;-71
2021/10/03 08:48:55;;;;;;;1999.90;999.90;;;;;;;15.39;61.44;96475.53;5069633;28;20188;-71
2021/10/03 08:51:23;;;;;;;1999.90;999.90;;;;;;;15.23;61.08;96469.16;5070166;28;20181;-72
2021/10/03 08:53:50;;;;;;;1999.90;999.90;;;;;;;15.28;62.65;96468.25;5069695;28;20290;-71
2021/10/03 08:56:18;;;;;;;1999.90;999.90;;;;;;;15.35;62.67;96468.59;5069808;28;20196;-70
2021/10/03 08:58:45;;;;;;;1999.90;999.90;;;;;;;14.98;61.85;96472.34;5069874;28;20205;-71
2021/10/03 09:01:13;;;;;;;1999.90;999.90;;;;;;;15.22;61.92;96474.66;5069375;28;20250;-72
2021/10/03 09:03:41;;;;;;;1999.90;999.90;;;;;;;15.41;61.63;96468.16;5069356;28;20207;-71
2021/10/03 09:06:10;;;;;;;1999.90;999.90;;;;;;;15.63;61.78;96464.78;5069456;28;20671;-71
2021/10/03 09:08:38;;;;;;;1999.90;999.90;;;;;;;15.90;61.38;96467.19;5069713;28;20224;-71
2021/10/03 09:11:06;;;;;;;1999.90;999.90;;;;;;;16.18;60.49;96459.13;5069269;28;20193;-71
2021/10/03 09:13:46;;;;;;;1999.90;999.90;;;;;;;16.27;58.41;96447.56;5069633;28;20200;-71
2021/10/03 09:16:15;;;;;;;1999.90;999.90;;;;;;;16.14;59.59;96447.72;5069678;28;20188;-71
2021/10/03 09:18:44;;;;;;;1999.90;999.90;;;;;;;16.10;59.93;96447.53;5069235;28;20722;-71
2021/10/03 09:21:34;;;;;;;1999.90;999.90;;;;;;;16.48;58.00;96447.78;5068959;28;20627;-72
2021/10/03 09:24:03;;;;;;;1999.90;999.90;;;;;;;16.36;58.24;96442.34;5069119;28;20192;-72
2021/10/03 09:26:30;;;;;;;1999.90;999.90;;;;;;;16.61;56.86;96432.97;5069342;28;20199;-72
2021/10/03 09:28:58;;;;;;;1999.90;999.90;;;;;;;16.47;58.00;96442.81;5069526;28;20205;-72
2021/10/03 09:31:26;;;;;;;1999.90;999.90;;;;;;;16.46;57.46;96433.41;5069491;28;20585;-71
2021/10/03 09:33:55;;;;;;;1999.90;999.90;;;;;;;16.86;57.98;96426.19;5069149;28;20200;-71
2021/10/03 09:36:25;;;;;;;1999.90;999.90;;;;;;;16.88;55.52;96424.81;5069331;28;20281;-71
2021/10/03 09:38:55;;;;;;;1999.90;999.90;;;;;;;16.85;56.26;96420.16;5069136;28;20195;-71
2021/10/03 09:41:25;;;;;;;1999.90;999.90;;;;;;;17.03;55.65;96418.31;5068979;28;20215;-71
2021/10/03 09:43:55;;;;;;;1999.90;999.90;;;;;;;16.64;57.83;96414.75;5069476;28;20664;-71
2021/10/03 09:46:38;;;;;;;1999.90;999.90;;;;;;;16.95;58.33;96408.56;5068818;28;20262;-72
2021/10/03 09:49:07;;;;;;;1999.90;999.90;;;;;;;16.53;57.29;96412.72;5069330;28;20266;-72
2021/10/03 09:51:37;;;;;;;1999.90;999.90;;;;;;;17.00;57.23;96403.91;5069203;28;20726;-71
2021/10/03 09:54:05;;;;;;;1999.90;999.90;;;;;;;17.25;57.03;96396.31;5068703;28;20658;-71
2021/10/03 09:56:33;;;;;;;1999.90;999.90;;;;;;;17.57;56.03;96409.66;5069088;28;20832;-71
2021/10/03 09:59:02;;;;;;;1999.90;999.90;;;;;;;17.75;54.47;96405.13;5068941;28;20567;-71
2021/10/03 10:01:34;;;;;;;1999.90;999.90;;;;;;;17.73;52.75;96404.69;5068667;28;20274;-71
2021/10/03 10:04:02;;;;;;;1999.90;999.90;;;;;;;17.57;51.66;96393.13;5068638;28;20203;-71
2021/10/03 10:06:29;;;;;;;1999.90;999.90;;;;;;;17.74;52.08;96389.66;5069069;28;20192;-72
2021/10/03 10:08:59;;;;;;;1999.90;999.90;;;;;;;17.98;50.50;96392.50;5069085;28;20257;-71
2021/10/03 10:11:33;;;;;;;1999.90;999.90;;;;;;;17.98;49.49;96379.34;5068505;28;20208;-72
2021/10/03 10:14:02;;;;;;;1999.90;999.90;;;;;;;17.91;50.65;96379.84;5068535;28;20267;-71
2021/10/03 10:16:35;;;;;;;1999.90;999.90;;;;;;;17.85;48.03;96367.19;5068715;28;20203;-72
2021/10/03 10:19:27;;;;;;;1999.90;999.90;;;;;;;18.14;46.63;96367.16;5068488;28;20188;-71
2021/10/03 10:22:41;;;;;;;1999.90;999.90;;;;;;;18.20;45.92;96367.75;5068546;28;20228;-72
2021/10/03 10:25:18;;;;;;;1999.90;999.90;;;;;;;18.41;45.72;96358.78;5068461;28;20203;-72
2021/10/03 10:28:07;;;;;;;1999.90;999.90;;;;;;;18.52;41.93;96351.25;5068502;28;20191;-72
2021/10/03 10:30:36;;;;;;;1999.90;999.90;;;;;;;18.56;43.72;96352.19;5068384;28;20203;-71
2021/10/03 10:33:11;;;;;;;1999.90;999.90;;;;;;;18.69;43.76;96351.13;5068355;28;20708;-72
2021/10/03 10:35:41;;;;;;;1999.90;999.90;;;;;;;18.81;44.52;96340.66;5068704;28;20591;-72
2021/10/03 10:38:16;;;;;;;1999.90;999.90;;;;;;;18.76;47.04;96332.94;5068673;28;20208;-71
2021/10/03 10:40:45;;;;;;;1999.90;999.90;;;;;;;18.95;45.68;96334.31;5068245;28;20764;-71
2021/10/03 10:43:41;;;;;;;1999.90;999.90;;;;;;;18.99;43.91;96335.19;5068609;28;20200;-72
2021/10/03 10:46:08;;;;;;;1999.90;999.90;;;;;;;19.08;44.77;96333.25;5044473;28;20208;-72
2021/10/03 10:48:35;;;;;;;1999.90;999.90;;;;;;;19.23;44.99;96330.72;5068512;28;20637;-72
2021/10/03 10:51:19;;;;;;;1999.90;999.90;;;;;;;19.19;43.46;96323.81;5068344;28;20196;-72
2021/10/03 10:53:46;;;;;;;1999.90;999.90;;;;;;;19.28;41.66;96327.09;5068086;28;20297;-72
2021/10/03 10:56:16;;;;;;;1999.90;999.90;;;;;;;19.32;44.09;96317.47;5068684;28;20250;-72
2021/10/03 10:59:03;;;;;;;1999.90;999.90;;;;;;;19.64;43.00;96307.94;5071486;28;20189;-72
2021/10/03 11:01:40;;;;;;;1999.90;999.90;;;;;;;19.60;40.85;96313.09;5071466;28;20220;-72
2021/10/03 11:04:23;;;;;;;1999.90;999.90;;;;;;;19.69;40.60;96310.34;5072055;28;20189;-71